createdAt,value
2023-01-17T00:00:42.569Z,2.64
2023-01-17T00:04:37.640Z,2.60
2023-01-17T00:08:45.258Z,2.60
2023-01-17T00:12:31.734Z,2.56
2023-01-17T00:16:15.606Z,2.52
2023-01-17T00:20:19.251Z,2.50
2023-01-17T00:24:03.833Z,2.49
2023-01-17T00:27:31.875Z,2.49
2023-01-17T00:31:08.994Z,2.50
2023-01-17T00:34:44.982Z,2.50
2023-01-17T00:38:41.661Z,2.46
2023-01-17T00:42:07.299Z,2.41
2023-01-17T00:46:05.930Z,2.36
2023-01-17T00:49:51.581Z,2.34
2023-01-17T00:53:53.323Z,2.35
2023-01-17T00:57:54.788Z,2.41
2023-01-17T01:01:36.879Z,2.42
2023-01-17T01:05:22.341Z,2.42
2023-01-17T01:09:07.036Z,2.42
2023-01-17T01:12:50.395Z,2.43
2023-01-17T01:16:36.231Z,2.46
2023-01-17T01:20:38.910Z,2.46
2023-01-17T01:24:40.121Z,2.46
2023-01-17T01:28:41.649Z,2.45
2023-01-17T01:32:25.213Z,2.44
2023-01-17T01:36:11.174Z,2.46
2023-01-17T01:39:37.790Z,2.47
2023-01-17T01:43:16.424Z,2.48
2023-01-17T01:46:52.660Z,2.49
2023-01-17T01:50:50.895Z,2.51
2023-01-17T01:54:38.790Z,2.54
2023-01-17T01:58:21.249Z,2.56
2023-01-17T02:02:06.786Z,2.57
2023-01-17T02:05:32.302Z,2.60
2023-01-17T02:09:28.762Z,2.62
2023-01-17T02:12:53.299Z,2.64
2023-01-17T02:16:39.210Z,2.65
2023-01-17T02:20:32.685Z,2.68
2023-01-17T02:24:46.153Z,2.71
2023-01-17T02:28:46.546Z,2.70
2023-01-17T02:32:55.133Z,2.67
2023-01-17T02:36:45.593Z,2.63
2023-01-17T02:40:28.085Z,2.63
2023-01-17T02:43:54.363Z,2.63
2023-01-17T02:47:49.807Z,2.63
2023-01-17T02:51:43.674Z,2.63
2023-01-17T02:55:39.482Z,2.60
2023-01-17T02:59:09.036Z,2.60
2023-01-17T03:03:18.391Z,2.59
2023-01-17T03:07:07.446Z,2.58
2023-01-17T03:10:51.754Z,2.58
2023-01-17T03:14:16.478Z,2.54
2023-01-17T03:18:15.244Z,2.57
2023-01-17T03:21:40.610Z,2.58
2023-01-17T03:25:37.682Z,2.56
2023-01-17T03:29:03.499Z,2.52
2023-01-17T03:33:02.370Z,2.43
2023-01-17T03:36:26.622Z,2.36
2023-01-17T03:40:04.807Z,2.28
2023-01-17T03:44:03.895Z,2.24
2023-01-17T03:47:46.647Z,2.23
2023-01-17T03:51:10.447Z,2.17
2023-01-17T03:55:07.278Z,2.12
2023-01-17T03:58:31.404Z,2.02
2023-01-17T04:02:28.402Z,1.90
2023-01-17T04:05:52.395Z,1.80
2023-01-17T04:09:52.002Z,1.71
2023-01-17T04:13:16.785Z,1.66
2023-01-17T04:17:14.107Z,1.61
2023-01-17T04:20:56.516Z,1.54
2023-01-17T04:24:21.862Z,1.47
2023-01-17T04:27:59.642Z,1.40
2023-01-17T04:31:35.765Z,1.33
2023-01-17T04:35:34.689Z,1.23
2023-01-17T04:38:58.731Z,1.17
2023-01-17T04:42:36.376Z,1.12
2023-01-17T04:46:13.570Z,1.08
2023-01-17T04:50:10.971Z,1.07
2023-01-17T04:53:53.148Z,1.08
2023-01-17T04:57:17.926Z,1.07
2023-01-17T05:00:56.139Z,1.06
2023-01-17T05:04:35.678Z,1.03
2023-01-17T05:08:10.091Z,0.98
2023-01-17T05:11:47.873Z,0.93
2023-01-17T05:15:30.749Z,0.87
2023-01-17T05:19:02.922Z,0.85
2023-01-17T05:22:42.760Z,0.84
2023-01-17T05:26:18.129Z,0.83
2023-01-17T05:30:15.332Z,0.82
2023-01-17T05:33:41.583Z,0.80
2023-01-17T05:37:36.216Z,0.81
2023-01-17T05:41:04.865Z,0.79
2023-01-17T05:44:39.235Z,0.77
2023-01-17T05:48:34.711Z,0.79
2023-01-17T05:52:19.948Z,0.82
2023-01-17T05:55:45.433Z,0.87
2023-01-17T05:59:35.969Z,0.91
2023-01-17T06:03:01.499Z,0.94
2023-01-17T06:06:57.586Z,0.92
2023-01-17T06:10:22.777Z,0.86
2023-01-17T06:14:02.051Z,0.78
2023-01-17T06:17:37.515Z,0.75
2023-01-17T06:21:15.778Z,0.71
2023-01-17T06:25:11.218Z,0.70
2023-01-17T06:28:54.907Z,0.69
2023-01-17T06:32:38.289Z,0.68
2023-01-17T06:36:01.816Z,0.65
2023-01-17T06:39:43.307Z,0.62
2023-01-17T06:43:18.319Z,0.62
2023-01-17T06:46:55.295Z,0.65
2023-01-17T06:50:51.323Z,0.71
2023-01-17T06:54:33.901Z,0.72
2023-01-17T06:58:16.923Z,0.73
2023-01-17T07:01:41.514Z,0.72
2023-01-17T07:05:19.479Z,0.70
2023-01-17T07:08:59.065Z,0.76
2023-01-17T07:12:33.609Z,0.78
2023-01-17T07:16:12.223Z,0.79
2023-01-17T07:20:09.885Z,0.87
2023-01-17T07:23:54.307Z,0.94
2023-01-17T07:27:18.991Z,0.99
2023-01-17T07:30:57.409Z,0.94
2023-01-17T07:34:36.418Z,0.90
2023-01-17T07:38:35.798Z,0.85
2023-01-17T07:42:23.971Z,0.85
2023-01-17T07:45:50.892Z,0.84
2023-01-17T07:49:28.148Z,0.86
2023-01-17T07:53:06.947Z,0.93
2023-01-17T07:56:45.915Z,1.01
2023-01-17T08:00:43.297Z,1.09
2023-01-17T08:04:33.992Z,1.14
2023-01-17T08:07:58.158Z,1.22
2023-01-17T08:11:54.343Z,1.26
2023-01-17T08:15:21.367Z,1.30
2023-01-17T08:19:14.497Z,1.31
2023-01-17T08:22:41.606Z,1.28
2023-01-17T08:26:22.141Z,1.26
2023-01-17T08:29:54.124Z,1.24
2023-01-17T08:33:33.798Z,1.26
2023-01-17T08:37:12.907Z,1.31
2023-01-17T08:41:05.955Z,1.41
2023-01-17T08:44:29.910Z,1.53
2023-01-17T08:48:11.041Z,1.60
2023-01-17T08:51:46.879Z,1.67
2023-01-17T08:55:25.939Z,1.69
2023-01-17T08:59:22.051Z,1.72
2023-01-17T09:03:10.006Z,1.76
2023-01-17T09:06:36.931Z,1.77
2023-01-17T09:10:33.104Z,1.82
2023-01-17T09:14:17.072Z,1.87
2023-01-17T09:17:41.590Z,1.94
2023-01-17T09:21:37.359Z,2.03
2023-01-17T09:25:01.946Z,2.08
2023-01-17T09:28:41.136Z,2.11
2023-01-17T09:32:37.833Z,2.15
2023-01-17T09:36:22.244Z,2.19
2023-01-17T09:39:50.829Z,2.23
2023-01-17T09:43:51.021Z,2.31
2023-01-17T09:47:31.771Z,2.39
2023-01-17T09:51:24.213Z,2.49
2023-01-17T09:54:53.499Z,2.56
2023-01-17T09:59:32.754Z,2.65
2023-01-17T10:03:25.035Z,2.72
2023-01-17T10:07:01.207Z,2.77
2023-01-17T10:10:37.317Z,2.85
2023-01-17T10:14:23.082Z,2.94
2023-01-17T10:18:06.459Z,3.03
2023-01-17T10:22:04.275Z,3.15
2023-01-17T10:25:59.884Z,3.24
2023-01-17T10:29:32.824Z,3.30
2023-01-17T10:33:17.915Z,3.38
2023-01-17T10:36:47.508Z,3.47
2023-01-17T10:40:44.061Z,3.60
2023-01-17T10:44:27.282Z,3.70
2023-01-17T10:48:06.060Z,3.74
2023-01-17T10:51:59.605Z,3.77
2023-01-17T10:55:54.174Z,3.86
2023-01-17T10:59:37.557Z,3.98
2023-01-17T11:03:02.782Z,4.10
2023-01-17T11:06:57.540Z,4.18
2023-01-17T11:10:54.190Z,4.26
2023-01-17T11:14:26.861Z,4.37
2023-01-17T11:18:20.252Z,4.47
2023-01-17T11:22:05.931Z,4.58
2023-01-17T11:25:58.172Z,4.68
2023-01-17T11:29:28.616Z,4.78
2023-01-17T11:33:06.077Z,4.83
2023-01-17T11:36:39.644Z,4.89
2023-01-17T11:40:42.670Z,4.99
2023-01-17T11:44:31.263Z,5.04
2023-01-17T11:48:17.953Z,5.10
2023-01-17T11:51:46.714Z,5.17
2023-01-17T11:55:40.684Z,5.21
2023-01-17T11:59:31.366Z,5.28
2023-01-17T12:03:45.641Z,5.40
2023-01-17T12:07:34.581Z,5.50
2023-01-17T12:11:23.922Z,5.59
2023-01-17T12:15:01.468Z,5.69
2023-01-17T12:18:42.969Z,5.78
2023-01-17T12:22:17.181Z,5.92
2023-01-17T12:26:07.683Z,6.07
2023-01-17T12:29:46.462Z,6.15
2023-01-17T12:33:22.011Z,6.28
2023-01-17T12:37:02.535Z,6.34
2023-01-17T12:41:05.211Z,6.40
2023-01-17T12:45:13.370Z,6.46
2023-01-17T12:49:23.385Z,6.54
2023-01-17T12:52:50.025Z,6.60
2023-01-17T12:56:39.348Z,6.73
2023-01-17T13:00:07.373Z,6.86
2023-01-17T13:04:12.653Z,6.88
2023-01-17T13:07:41.106Z,6.99
2023-01-17T13:11:45.518Z,7.12
2023-01-17T13:15:23.191Z,7.10
2023-01-17T13:18:51.584Z,7.25
2023-01-17T13:22:49.007Z,7.38
2023-01-17T13:26:53.590Z,7.55
2023-01-17T13:30:46.274Z,7.63
2023-01-17T13:34:20.119Z,7.76
2023-01-17T13:38:15.130Z,7.87
2023-01-17T13:41:54.880Z,7.89
2023-01-17T13:45:39.050Z,7.86
2023-01-17T13:49:38.069Z,7.92
2023-01-17T13:53:35.810Z,7.98
2023-01-17T13:57:40.029Z,8.09
2023-01-17T14:01:11.483Z,8.13
2023-01-17T14:05:11.370Z,8.17
2023-01-17T14:08:38.928Z,8.09
2023-01-17T14:12:18.029Z,8.02
2023-01-17T14:15:52.865Z,7.81
2023-01-17T14:19:36.381Z,7.58
2023-01-17T14:23:31.635Z,7.28
2023-01-17T14:26:59.802Z,6.97
2023-01-17T14:30:38.104Z,6.73
2023-01-17T14:34:13.902Z,6.41
2023-01-17T14:37:54.338Z,6.11
2023-01-17T14:41:29.897Z,5.86
2023-01-17T14:45:09.198Z,5.70
2023-01-17T14:48:44.467Z,5.53
2023-01-17T14:52:23.607Z,5.40
2023-01-17T14:56:17.708Z,5.29
2023-01-17T14:59:44.022Z,5.17
2023-01-17T15:03:22.676Z,5.08
2023-01-17T15:07:02.067Z,4.96
2023-01-17T15:10:45.616Z,4.82
2023-01-17T15:14:36.844Z,4.67
2023-01-17T15:18:25.165Z,4.52
2023-01-17T15:22:08.298Z,4.36
2023-01-17T15:25:52.959Z,4.28
2023-01-17T15:29:37.530Z,4.19
2023-01-17T15:33:21.305Z,4.08
2023-01-17T15:36:50.486Z,3.93
2023-01-17T15:40:27.228Z,3.78
2023-01-17T15:44:02.549Z,3.58
2023-01-17T15:48:00.819Z,3.37
2023-01-17T15:52:00.940Z,3.23
2023-01-17T15:55:42.759Z,3.12
2023-01-17T15:59:40.947Z,3.02
2023-01-17T16:03:26.432Z,2.86
2023-01-17T16:07:21.619Z,2.68
2023-01-17T16:10:45.707Z,2.44
2023-01-17T16:15:02.543Z,2.03
2023-01-17T16:18:27.649Z,1.62
2023-01-17T16:22:26.435Z,1.50
2023-01-17T16:25:51.014Z,1.42
2023-01-17T16:29:29.321Z,1.32
2023-01-17T16:33:09.839Z,1.15
2023-01-17T16:36:46.409Z,1.03
2023-01-17T16:40:27.188Z,0.89
2023-01-17T16:44:06.083Z,0.72
2023-01-17T16:47:57.098Z,0.61
2023-01-17T16:51:21.445Z,0.61
2023-01-17T16:55:02.604Z,0.71
2023-01-17T16:58:58.042Z,0.83
2023-01-17T17:02:23.155Z,0.87
2023-01-17T17:06:04.446Z,0.74
2023-01-17T17:09:39.179Z,0.65
2023-01-17T17:13:38.761Z,0.70
2023-01-17T17:17:04.615Z,0.77
2023-01-17T17:20:41.106Z,0.77
2023-01-17T17:24:38.433Z,0.77
2023-01-17T17:28:06.104Z,0.66
2023-01-17T17:31:58.675Z,0.53
2023-01-17T17:35:22.602Z,0.49
2023-01-17T17:39:03.559Z,0.53
2023-01-17T17:42:38.402Z,0.63
2023-01-17T17:46:20.365Z,0.74
2023-01-17T17:49:53.981Z,0.81
2023-01-17T17:53:53.077Z,0.84
2023-01-17T17:57:16.772Z,0.89
2023-01-17T18:00:55.011Z,0.82
2023-01-17T18:04:34.036Z,0.79
2023-01-17T18:08:10.885Z,0.76
2023-01-17T18:11:50.066Z,0.73
2023-01-17T18:15:45.896Z,0.69
2023-01-17T18:19:30.756Z,0.66
2023-01-17T18:23:14.934Z,0.65
2023-01-17T18:26:51.896Z,0.62
2023-01-17T18:30:42.132Z,0.62
2023-01-17T18:34:09.189Z,0.61
2023-01-17T18:37:43.984Z,0.62
2023-01-17T18:41:26.893Z,0.67
2023-01-17T18:44:59.627Z,0.75
2023-01-17T18:48:39.066Z,0.78
2023-01-17T18:52:15.047Z,0.82
2023-01-17T18:56:14.591Z,0.85
2023-01-17T18:59:38.194Z,0.88
2023-01-17T19:03:35.956Z,0.81
2023-01-17T19:07:06.639Z,0.61
2023-01-17T19:10:56.171Z,0.53
2023-01-17T19:14:19.645Z,0.47
2023-01-17T19:18:16.596Z,0.51
2023-01-17T19:21:42.221Z,0.56
2023-01-17T19:25:39.933Z,0.57
2023-01-17T19:29:07.249Z,0.61
2023-01-17T19:32:43.427Z,0.53
2023-01-17T19:36:25.238Z,0.44
2023-01-17T19:39:59.883Z,0.42
2023-01-17T19:43:37.199Z,0.39
2023-01-17T19:47:14.365Z,0.40
2023-01-17T19:50:51.879Z,0.46
2023-01-17T19:54:47.938Z,0.53
2023-01-17T19:58:18.140Z,0.58
2023-01-17T20:01:52.542Z,0.51
2023-01-17T20:05:56.928Z,0.51
2023-01-17T20:09:41.929Z,0.60
2023-01-17T20:13:08.740Z,0.66
2023-01-17T20:16:47.730Z,0.67
2023-01-17T20:20:24.050Z,0.68
2023-01-17T20:24:01.392Z,0.62
2023-01-17T20:27:38.324Z,0.55
2023-01-17T20:31:39.878Z,0.43
2023-01-17T20:35:04.004Z,0.35
2023-01-17T20:38:48.772Z,0.35
2023-01-17T20:42:20.635Z,0.34
2023-01-17T20:45:58.683Z,0.36
2023-01-17T20:49:36.409Z,0.44
2023-01-17T20:53:33.074Z,0.57
2023-01-17T20:57:17.593Z,0.68
2023-01-17T21:01:01.711Z,0.77
2023-01-17T21:04:44.709Z,0.82
2023-01-17T21:08:09.510Z,0.85
2023-01-17T21:12:05.195Z,0.90
2023-01-17T21:15:33.976Z,0.95
2023-01-17T21:19:15.956Z,1.00
2023-01-17T21:23:08.952Z,1.09
2023-01-17T21:26:34.776Z,1.21
2023-01-17T21:30:13.181Z,1.30
2023-01-17T21:34:10.992Z,1.34
2023-01-17T21:37:35.978Z,1.31
2023-01-17T21:41:13.287Z,1.26
2023-01-17T21:44:50.500Z,1.20
2023-01-17T21:48:27.765Z,1.17
2023-01-17T21:52:05.244Z,1.23
2023-01-17T21:56:29.381Z,1.34
2023-01-17T21:59:54.947Z,1.45
2023-01-17T22:03:34.829Z,1.48
2023-01-17T22:07:10.387Z,1.50
2023-01-17T22:11:09.912Z,1.54
2023-01-17T22:14:52.959Z,1.55
2023-01-17T22:18:43.405Z,1.59
2023-01-17T22:22:26.631Z,1.67
2023-01-17T22:26:12.197Z,1.73
2023-01-17T22:29:54.660Z,1.72
2023-01-17T22:33:17.870Z,1.64
2023-01-17T22:36:55.654Z,1.59
2023-01-17T22:40:52.223Z,1.56
2023-01-17T22:44:17.903Z,1.59
2023-01-17T22:47:54.917Z,1.63
2023-01-17T22:51:51.203Z,1.68
2023-01-17T22:55:17.189Z,1.68
2023-01-17T22:59:12.947Z,1.67
2023-01-17T23:02:57.507Z,1.67
2023-01-17T23:06:30.382Z,1.68
2023-01-17T23:10:01.483Z,1.64
2023-01-17T23:13:39.417Z,1.57
2023-01-17T23:17:54.731Z,1.56
2023-01-17T23:21:56.415Z,1.51
2023-01-17T23:25:22.439Z,1.59
2023-01-17T23:28:59.124Z,1.63
2023-01-17T23:32:39.583Z,1.65
2023-01-17T23:36:13.135Z,1.66
2023-01-17T23:39:50.882Z,1.68
2023-01-17T23:43:52.745Z,1.63
2023-01-17T23:47:16.984Z,1.61
2023-01-17T23:51:08.341Z,1.60
2023-01-17T23:54:52.558Z,1.61
2023-01-17T23:58:37.552Z,1.67
